Time;durP1;ratioP1;P1;durP2;ratioP2;P2;SDS_P1;SDS_P2;PMS_P1;PMS_P2;Temp;Humidity;BMP_temperature;BMP_pressure;BME280_temperature;BME280_humidity;BME280_pressure;Samples;Min_cycle;Max_cycle;Signal;HPM_P1;HPM_P2
2022/01/01 00:02:02;;;;;;;16.60;10.63;;;;;;;9.74;89.89;100139.80;2122435;82;21007;-77
2022/01/01 00:05:06;;;;;;;12.90;8.20;;;;;;;9.76;90.11;100140.95;2116339;82;21029;-77
2022/01/01 00:08:10;;;;;;;10.90;7.10;;;;;;;9.77;90.19;100150.08;2118526;82;21475;-76
2022/01/01 00:11:15;;;;;;;10.75;6.92;;;;;;;9.79;90.15;100157.84;2124002;82;21974;-77
2022/01/01 00:14:17;;;;;;;10.43;6.97;;;;;;;9.80;90.26;100159.53;2120520;82;21051;-77
2022/01/01 00:17:18;;;;;;;7.90;5.70;;;;;;;9.80;90.09;100157.70;2125477;82;21058;-76
2022/01/01 00:20:24;;;;;;;9.28;5.95;;;;;;;9.83;90.07;100161.86;2122051;82;21070;-76
2022/01/01 00:23:30;;;;;;;6.20;4.90;;;;;;;9.84;90.14;100163.50;2124894;82;21078;-78
2022/01/01 00:26:31;;;;;;;7.20;5.67;;;;;;;9.85;90.24;100166.47;2121526;82;21042;-76
2022/01/01 00:29:35;;;;;;;10.03;5.03;;;;;;;9.87;90.49;100167.98;2123436;82;22005;-76
2022/01/01 00:32:38;;;;;;;6.80;4.58;;;;;;;9.90;90.53;100167.33;2123306;82;21061;-79
2022/01/01 00:35:40;;;;;;;8.60;4.83;;;;;;;9.90;90.41;100167.33;2124986;82;20993;-77
2022/01/01 00:38:42;;;;;;;7.78;4.80;;;;;;;9.90;90.31;100165.50;2125082;82;21022;-76
2022/01/01 00:41:48;;;;;;;7.20;4.33;;;;;;;9.91;90.31;100167.19;2129473;82;21614;-77
2022/01/01 00:44:49;;;;;;;5.37;3.87;;;;;;;9.92;90.39;100182.58;2126560;82;21478;-77
2022/01/01 00:47:51;;;;;;;5.58;3.95;;;;;;;9.93;90.24;100185.55;2122203;83;21537;-77
2022/01/01 00:50:52;;;;;;;5.92;4.17;;;;;;;9.93;90.23;100185.05;2122593;82;21064;-76
2022/01/01 00:53:54;;;;;;;4.65;3.58;;;;;;;9.92;90.44;100199.31;2122310;82;21047;-77
2022/01/01 00:56:58;;;;;;;6.35;3.92;;;;;;;9.92;90.29;100197.98;2118367;82;21034;-77
2022/01/01 01:00:01;;;;;;;5.20;4.05;;;;;;;9.93;90.49;100202.28;2124633;82;21595;-81
2022/01/01 01:03:11;;;;;;;10.05;4.92;;;;;;;9.94;90.53;100209.73;2126215;82;20998;-79
2022/01/01 01:06:13;;;;;;;6.22;4.90;;;;;;;9.94;90.52;100216.36;2120019;82;21014;-76
2022/01/01 01:09:15;;;;;;;6.78;4.72;;;;;;;9.95;90.61;100215.39;2126681;82;21030;-78
2022/01/01 01:12:24;;;;;;;6.70;4.12;;;;;;;9.94;90.61;100209.73;2118442;82;21154;-77
2022/01/01 01:15:24;;;;;;;4.70;3.77;;;;;;;9.93;90.86;100214.21;2124704;82;21062;-76
2022/01/01 01:18:28;;;;;;;5.70;4.40;;;;;;;9.94;90.73;100216.36;2123379;82;21009;-78
2022/01/01 01:21:32;;;;;;;7.70;4.78;;;;;;;9.95;90.84;100227.31;2126960;82;21283;-78
2022/01/01 01:24:34;;;;;;;7.58;4.42;;;;;;;9.96;90.77;100232.95;2122713;82;21034;-76
2022/01/01 01:27:38;;;;;;;7.83;4.65;;;;;;;9.95;90.70;100240.58;2124750;82;21073;-76
2022/01/01 01:30:41;;;;;;;6.67;5.35;;;;;;;9.95;90.69;100241.90;2125417;82;21038;-77
2022/01/01 01:33:44;;;;;;;5.83;4.75;;;;;;;9.93;90.71;100238.56;2125789;82;20974;-76
2022/01/01 01:36:47;;;;;;;5.12;4.25;;;;;;;9.91;90.87;100243.19;2120992;82;21063;-77
2022/01/01 01:39:49;;;;;;;6.62;3.67;;;;;;;9.90;91.26;100244.19;2126432;82;21034;-78
2022/01/01 01:42:51;;;;;;;6.17;4.20;;;;;;;9.90;91.24;100256.12;2125807;82;21550;-76
2022/01/01 01:45:53;;;;;;;7.45;4.15;;;;;;;9.89;91.27;100259.27;2121723;82;21826;-76
2022/01/01 01:48:55;;;;;;;6.70;4.45;;;;;;;9.88;91.32;100266.86;2126880;82;21032;-76
2022/01/01 01:51:57;;;;;;;6.28;3.90;;;;;;;9.88;91.28;100268.19;2123549;82;21430;-77
2022/01/01 01:55:02;;;;;;;7.05;4.20;;;;;;;9.85;91.26;100266.72;2123352;82;21846;-76
2022/01/01 01:58:04;;;;;;;5.37;3.98;;;;;;;9.83;91.46;100270.51;2124399;82;21017;-80
2022/01/01 02:01:20;;;;;;;7.30;3.90;;;;;;;9.81;91.59;100273.30;2126078;82;21113;-76
2022/01/01 02:04:16;;;;;;;4.33;3.42;;;;;;;9.83;91.84;100277.95;2121975;82;21108;-77
2022/01/01 02:07:19;;;;;;;5.25;3.52;;;;;;;9.81;91.72;100283.08;2127067;82;21432;-76
2022/01/01 02:10:21;;;;;;;3.62;3.27;;;;;;;9.79;91.78;100277.92;2123841;82;21496;-76
2022/01/01 02:13:46;;;;;;;4.22;3.52;;;;;;;9.78;91.97;100275.45;2117602;82;21045;-76
2022/01/01 02:16:54;;;;;;;4.28;3.27;;;;;;;9.78;92.15;100275.45;2119724;82;21070;-76
2022/01/01 02:19:46;;;;;;;;;;;;;;;9.78;92.30;100274.95;2125219;82;21399;-77
2022/01/01 02:22:50;;;;;;;7.60;3.70;;;;;;;9.77;92.18;100282.57;2125351;83;20531;-75
2022/01/01 02:25:54;;;;;;;4.83;4.15;;;;;;;9.74;92.23;100275.41;2123408;82;21010;-77
2022/01/01 02:28:58;;;;;;;4.62;3.98;;;;;;;9.72;92.28;100282.70;2129067;83;21418;-78
2022/01/01 02:31:59;;;;;;;7.67;4.70;;;;;;;9.72;92.64;100275.58;2118148;82;21117;-76
2022/01/01 02:35:05;;;;;;;5.47;4.60;;;;;;;9.74;92.54;100297.46;2117008;82;21516;-76
2022/01/01 02:38:08;;;;;;;7.37;4.28;;;;;;;9.73;92.57;100297.11;2120467;82;21013;-76
2022/01/01 02:41:09;;;;;;;10.28;4.47;;;;;;;9.72;92.79;100294.13;2125901;82;21041;-76
2022/01/01 02:44:13;;;;;;;5.85;4.37;;;;;;;9.72;92.68;100296.78;2125111;82;20947;-76
2022/01/01 02:47:15;;;;;;;7.20;4.92;;;;;;;9.71;92.76;100293.77;2119187;82;21041;-79
2022/01/01 02:50:18;;;;;;;7.00;4.58;;;;;;;9.70;92.62;100301.39;2127447;82;21109;-80
2022/01/01 02:53:20;;;;;;;8.33;5.20;;;;;;;9.71;92.70;100301.72;2125201;82;20994;-76
2022/01/01 02:56:22;;;;;;;6.67;4.35;;;;;;;9.70;92.64;100300.07;2123067;83;21616;-76
2022/01/01 02:59:24;;;;;;;6.12;4.78;;;;;;;9.70;92.73;100308.02;2128852;83;20997;-76
2022/01/01 03:02:26;;;;;;;9.80;5.08;;;;;;;9.69;92.74;100309.52;2125293;82;21042;-75
2022/01/01 03:05:27;;;;;;;5.33;4.62;;;;;;;9.67;92.79;100308.34;2128065;82;21013;-78
2022/01/01 03:08:31;;;;;;;5.83;4.60;;;;;;;9.67;92.95;100310.16;2123334;82;21007;-77
2022/01/01 03:11:33;;;;;;;6.00;5.12;;;;;;;9.68;92.97;100307.84;2122525;82;21790;-78
2022/01/01 03:14:37;;;;;;;6.28;4.95;;;;;;;9.68;93.12;100312.63;2121524;82;21359;-76
2022/01/01 03:17:38;;;;;;;7.75;4.75;;;;;;;9.68;93.13;100307.34;2121572;82;21042;-76
2022/01/01 03:20:42;;;;;;;7.90;4.90;;;;;;;9.68;93.12;100310.48;2121224;82;21676;-80
2022/01/01 03:23:44;;;;;;;6.75;4.75;;;;;;;9.67;93.28;100308.34;2118723;82;21017;-76
2022/01/01 03:26:46;;;;;;;8.03;4.80;;;;;;;9.69;93.42;100319.62;2118671;82;21029;-76
2022/01/01 03:29:48;;;;;;;5.15;4.40;;;;;;;9.68;93.51;100316.61;2117507;82;21073;-76
2022/01/01 03:32:50;;;;;;;5.40;4.50;;;;;;;9.70;93.61;100309.84;2117156;82;21017;-77
2022/01/01 03:35:52;;;;;;;5.65;4.40;;;;;;;9.74;93.64;100321.31;2120705;82;21005;-76
2022/01/01 03:38:55;;;;;;;6.28;5.22;;;;;;;9.75;93.57;100316.84;2120356;82;21013;-76
2022/01/01 03:42:02;;;;;;;8.28;4.95;;;;;;;9.76;93.55;100326.44;2122958;82;21528;-75
2022/01/01 03:45:04;;;;;;;7.20;5.50;;;;;;;9.76;93.49;100324.61;2115875;82;21038;-76
2022/01/01 03:48:06;;;;;;;7.70;5.17;;;;;;;9.76;93.49;100327.27;2119035;82;21043;-77
2022/01/01 03:51:08;;;;;;;7.42;5.05;;;;;;;9.75;93.66;100333.56;2117342;82;20958;-76
2022/01/01 03:54:12;;;;;;;5.65;4.47;;;;;;;9.75;93.78;100330.91;2120999;82;21025;-76
2022/01/01 03:57:14;;;;;;;6.70;5.08;;;;;;;9.76;93.69;100331.73;2113275;82;21050;-76
2022/01/01 04:00:16;;;;;;;6.95;5.97;;;;;;;9.74;93.72;100331.91;2120137;82;22140;-75
2022/01/01 04:03:18;;;;;;;6.80;5.40;;;;;;;9.75;93.94;100333.56;2116846;82;21906;-75
2022/01/01 04:06:21;;;;;;;7.72;5.12;;;;;;;9.75;94.07;100332.23;2119328;83;21023;-76
2022/01/01 04:09:23;;;;;;;9.10;5.80;;;;;;;9.75;94.16;100338.86;2119750;82;21767;-78
2022/01/01 04:12:26;;;;;;;7.50;5.47;;;;;;;9.75;94.21;100344.16;2117800;82;21838;-75
2022/01/01 04:15:29;;;;;;;6.30;5.25;;;;;;;9.75;94.40;100351.28;2125714;83;21076;-76
2022/01/01 04:18:40;;;;;;;6.85;4.85;;;;;;;9.74;94.14;100353.58;2124725;82;21031;-75
2022/01/01 04:21:35;;;;;;;7.00;5.12;;;;;;;9.72;94.13;100357.72;2121667;82;20994;-76
2022/01/01 04:24:39;;;;;;;6.30;4.58;;;;;;;9.72;94.14;100363.52;2123532;82;21907;-76
2022/01/01 04:27:41;;;;;;;7.10;5.03;;;;;;;9.72;94.30;100361.70;2124787;82;21552;-77
2022/01/01 04:30:43;;;;;;;8.05;4.90;;;;;;;9.74;94.23;100368.15;2128878;82;21472;-77
2022/01/01 04:33:45;;;;;;;7.00;4.45;;;;;;;9.75;94.32;100369.83;2124361;82;21064;-78
2022/01/01 04:36:52;;;;;;;7.28;4.50;;;;;;;9.77;94.24;100370.48;2122305;83;20982;-75
2022/01/01 04:39:54;;;;;;;6.40;5.30;;;;;;;9.77;94.19;100374.46;2125672;82;21053;-79
2022/01/01 04:42:56;;;;;;;5.70;4.10;;;;;;;9.77;94.21;100373.99;2125889;82;21750;-76
2022/01/01 04:45:58;;;;;;;9.63;5.03;;;;;;;9.79;94.16;100378.63;2124912;82;20982;-75
2022/01/01 04:49:02;;;;;;;6.30;4.70;;;;;;;9.82;94.00;100384.11;2121177;82;21384;-80
2022/01/01 04:52:03;;;;;;;4.97;4.42;;;;;;;9.82;93.89;100388.91;2120723;82;21018;-75
2022/01/01 04:55:08;;;;;;;7.65;4.92;;;;;;;9.81;93.79;100392.56;2122302;82;21104;-77
2022/01/01 04:58:09;;;;;;;6.40;4.55;;;;;;;9.83;93.75;100391.92;2122886;82;21056;-76
2022/01/01 05:01:12;;;;;;;6.90;4.50;;;;;;;9.83;93.71;100397.72;2124700;82;21042;-76
2022/01/01 05:04:15;;;;;;;5.97;4.50;;;;;;;9.82;93.69;100403.48;2123568;82;21028;-76
2022/01/01 05:07:19;;;;;;;5.72;4.42;;;;;;;9.81;93.70;100408.46;2125817;82;21002;-76
2022/01/01 05:10:24;;;;;;;5.85;3.95;;;;;;;9.80;93.83;100404.66;2126439;82;21538;-76
2022/01/01 05:13:26;;;;;;;5.28;3.83;;;;;;;9.81;93.88;100411.11;2124600;82;21050;-76
2022/01/01 05:16:27;;;;;;;4.40;3.95;;;;;;;9.81;93.96;100408.46;2119470;82;21497;-76
2022/01/01 05:19:29;;;;;;;5.03;3.77;;;;;;;9.82;93.98;100407.96;2114572;82;21002;-76
2022/01/01 05:22:31;;;;;;;5.40;3.60;;;;;;;9.81;93.95;100411.11;2122872;82;20978;-76
2022/01/01 05:25:32;;;;;;;5.90;3.58;;;;;;;9.82;93.97;100409.28;2120814;82;21045;-76
2022/01/01 05:28:34;;;;;;;5.37;3.47;;;;;;;9.82;93.99;100415.91;2117249;82;20945;-76
2022/01/01 05:31:36;;;;;;;4.62;3.12;;;;;;;9.80;93.98;100410.78;2119543;82;21605;-76
2022/01/01 05:34:37;;;;;;;3.83;3.10;;;;;;;9.81;93.97;100428.34;2115563;82;21820;-75
2022/01/01 05:37:39;;;;;;;5.30;3.72;;;;;;;9.79;93.83;100426.83;2118547;82;20971;-76
2022/01/01 05:40:41;;;;;;;6.83;4.20;;;;;;;9.77;93.85;100428.78;2116348;82;20929;-76
2022/01/01 05:43:42;;;;;;;6.12;4.10;;;;;;;9.78;93.93;100437.09;2117481;82;21009;-76
2022/01/01 05:46:44;;;;;;;5.00;4.05;;;;;;;9.77;93.85;100435.41;2120191;82;20998;-76
2022/01/01 05:49:46;;;;;;;5.60;4.30;;;;;;;9.75;93.86;100434.26;2116457;82;21971;-76
2022/01/01 05:52:49;;;;;;;6.17;4.80;;;;;;;9.75;93.94;100439.56;2117962;82;21485;-76
2022/01/01 05:55:53;;;;;;;5.50;4.35;;;;;;;9.75;94.08;100440.88;2115207;82;21897;-76
2022/01/01 05:58:56;;;;;;;4.55;3.90;;;;;;;9.75;94.03;100441.38;2116070;82;20975;-76
2022/01/01 06:01:58;;;;;;;7.25;4.37;;;;;;;9.76;94.22;100447.84;2116435;82;21064;-76
2022/01/01 06:05:00;;;;;;;4.35;3.77;;;;;;;9.78;94.28;100452.50;2120378;82;21100;-76
2022/01/01 06:08:03;;;;;;;8.50;3.95;;;;;;;9.79;94.27;100453.33;2114239;82;21005;-76
2022/01/01 06:11:06;;;;;;;5.12;3.37;;;;;;;9.78;94.18;100460.95;2114402;82;21065;-75
2022/01/01 06:14:08;;;;;;;5.12;3.60;;;;;;;9.77;94.13;100452.17;2111942;82;20983;-76
2022/01/01 06:17:10;;;;;;;4.85;3.27;;;;;;;9.78;94.16;100456.48;2111058;82;21054;-76
2022/01/01 06:20:12;;;;;;;5.65;4.30;;;;;;;9.77;94.10;100464.09;2107553;81;21003;-76
2022/01/01 06:23:14;;;;;;;6.47;3.92;;;;;;;9.76;94.10;100470.36;2116604;81;21045;-79
2022/01/01 06:26:16;;;;;;;4.85;3.80;;;;;;;9.77;94.20;100471.19;2109744;82;21020;-75
2022/01/01 06:29:17;;;;;;;6.08;3.90;;;;;;;9.75;94.20;100471.36;2113395;82;21004;-77
2022/01/01 06:32:19;;;;;;;4.50;3.70;;;;;;;9.76;94.13;100473.51;2106018;82;21053;-78
2022/01/01 06:35:23;;;;;;;4.20;3.55;;;;;;;9.75;94.14;100484.61;2117033;82;21135;-77
2022/01/01 06:38:25;;;;;;;4.85;3.83;;;;;;;9.75;94.11;100469.20;2115990;82;21870;-77
2022/01/01 06:41:26;;;;;;;4.35;3.87;;;;;;;9.75;94.31;100476.66;2110869;82;21006;-77
2022/01/01 06:44:28;;;;;;;6.25;3.83;;;;;;;9.75;94.35;100489.91;2116633;82;21042;-82
2022/01/01 06:47:31;;;;;;;4.15;3.37;;;;;;;9.74;94.23;100488.25;2114375;82;21773;-77
2022/01/01 06:50:36;;;;;;;7.80;4.17;;;;;;;9.75;94.28;100497.86;2108868;82;21593;-76
2022/01/01 06:53:39;;;;;;;7.60;3.98;;;;;;;9.74;94.21;100500.17;2113895;82;21152;-76
2022/01/01 06:56:43;;;;;;;4.85;3.72;;;;;;;9.74;94.34;100501.50;2110097;82;21037;-77
2022/01/01 06:59:47;;;;;;;5.05;3.90;;;;;;;9.74;94.25;100504.63;2110693;81;21103;-76
2022/01/01 07:02:50;;;;;;;6.28;4.10;;;;;;;9.75;94.27;100504.48;2112695;82;21119;-78
2022/01/01 07:05:53;;;;;;;8.00;4.25;;;;;;;9.77;94.35;100519.75;2112823;82;20991;-77
2022/01/01 07:08:56;;;;;;;4.75;3.92;;;;;;;9.78;94.34;100521.41;2107097;82;21043;-77
2022/01/01 07:12:02;;;;;;;5.17;4.08;;;;;;;9.79;94.36;100520.41;2114543;82;21030;-77
2022/01/01 07:15:06;;;;;;;6.45;4.78;;;;;;;9.78;94.37;100522.73;2098190;82;21032;-77
2022/01/01 07:18:08;;;;;;;4.97;4.03;;;;;;;9.77;94.42;100523.72;2085521;83;21667;-78
2022/01/01 07:21:13;;;;;;;7.20;4.85;;;;;;;9.76;94.43;100526.02;2090920;83;21136;-78
2022/01/01 07:24:15;;;;;;;5.85;4.78;;;;;;;9.75;94.45;100531.48;2083980;83;21093;-78
2022/01/01 07:27:20;;;;;;;6.45;4.92;;;;;;;9.75;94.50;100534.95;2087548;83;21039;-77
2022/01/01 07:30:23;;;;;;;7.58;4.78;;;;;;;9.74;94.57;100538.60;2089726;83;21459;-78
2022/01/01 07:33:27;;;;;;;6.67;4.78;;;;;;;9.74;94.78;100540.39;2084657;83;21018;-75
2022/01/01 07:36:29;;;;;;;7.12;5.15;;;;;;;9.72;94.83;100539.73;2088490;83;21031;-77
2022/01/01 07:39:31;;;;;;;7.35;4.85;;;;;;;9.71;94.72;100532.25;2089842;83;21077;-81
2022/01/01 07:42:34;;;;;;;7.62;4.80;;;;;;;9.69;94.83;100535.56;2086105;83;21069;-77
2022/01/01 07:45:36;;;;;;;7.83;5.58;;;;;;;9.72;94.74;100537.09;2089298;83;21030;-76
2022/01/01 07:48:39;;;;;;;8.10;5.90;;;;;;;9.74;94.72;100541.25;2086854;83;21058;-79
2022/01/01 07:51:40;;;;;;;6.60;4.80;;;;;;;9.75;94.69;100544.73;2084103;83;21761;-77
2022/01/01 07:54:43;;;;;;;9.65;5.25;;;;;;;9.75;94.66;100542.91;2085883;83;20960;-75
2022/01/01 07:57:45;;;;;;;10.55;6.72;;;;;;;9.77;94.69;100540.09;2081803;83;21086;-79
2022/01/01 08:00:48;;;;;;;12.33;6.65;;;;;;;9.77;94.65;100544.06;2087230;83;21218;-78
2022/01/01 08:03:50;;;;;;;10.18;6.40;;;;;;;9.78;94.57;100547.08;2089870;83;21065;-76
2022/01/01 08:06:53;;;;;;;10.23;6.35;;;;;;;9.79;94.61;100557.51;2086065;83;20966;-77
2022/01/01 08:09:57;;;;;;;8.73;5.85;;;;;;;9.81;94.56;100559.52;2086144;83;21317;-77
2022/01/01 08:13:01;;;;;;;9.08;6.30;;;;;;;9.82;94.49;100560.35;2080442;84;21351;-76
2022/01/01 08:16:05;;;;;;;8.33;5.47;;;;;;;9.84;94.43;100572.47;2116964;82;21788;-76
2022/01/01 08:19:10;;;;;;;9.60;6.60;;;;;;;9.86;94.43;100569.19;2106354;83;21125;-76
2022/01/01 08:22:14;;;;;;;10.88;6.53;;;;;;;9.90;94.34;100571.53;2120683;82;21089;-76
2022/01/01 08:25:16;;;;;;;11.48;6.22;;;;;;;9.91;94.22;100571.86;2125437;82;21016;-73
2022/01/01 08:28:25;;;;;;;10.28;6.22;;;;;;;9.94;94.14;100566.25;2121959;82;21839;-72
2022/01/01 08:31:29;;;;;;;11.55;6.50;;;;;;;9.94;94.01;100572.88;2125040;82;21019;-78
2022/01/01 08:34:31;;;;;;;21.65;8.15;;;;;;;9.93;94.01;100576.03;2126907;82;21053;-73
2022/01/01 08:37:37;;;;;;;9.60;6.67;;;;;;;9.92;93.92;100584.98;2111857;83;21592;-85
2022/01/01 08:40:42;;;;;;;16.50;7.80;;;;;;;9.92;93.89;100590.28;2126993;82;21069;-74
2022/01/01 08:43:50;;;;;;;11.78;6.95;;;;;;;9.94;93.91;100594.09;2124732;82;21113;-74
2022/01/01 08:46:54;;;;;;;12.60;7.25;;;;;;;9.94;93.87;100596.73;2124730;82;21081;-77
2022/01/01 08:49:56;;;;;;;14.68;7.85;;;;;;;9.95;93.84;100596.60;2125724;83;21005;-75
2022/01/01 08:53:01;;;;;;;12.35;7.33;;;;;;;9.97;93.80;100596.47;2126667;82;21897;-76
2022/01/01 08:56:07;;;;;;;12.28;7.65;;;;;;;9.97;93.84;100606.58;2124933;82;21518;-75
2022/01/01 08:59:12;;;;;;;13.58;7.95;;;;;;;10.00;93.82;100601.47;2122856;82;20971;-76
2022/01/01 09:02:17;;;;;;;14.23;8.10;;;;;;;10.03;93.76;100610.44;2122429;82;21493;-76
2022/01/01 09:05:25;;;;;;;13.30;8.15;;;;;;;10.06;93.73;100606.16;2124208;82;21002;-75
2022/01/01 09:08:30;;;;;;;14.38;7.90;;;;;;;10.07;93.72;100608.64;2120002;82;21065;-73
2022/01/01 09:11:36;;;;;;;11.03;7.62;;;;;;;10.09;93.44;100618.61;2129462;82;21032;-75
2022/01/01 09:14:42;;;;;;;12.33;7.83;;;;;;;10.09;93.44;100618.61;2113176;82;21049;-76
2022/01/01 09:17:44;;;;;;;15.15;7.28;;;;;;;10.09;93.39;100635.02;2063999;84;21031;-87
2022/01/01 09:20:50;;;;;;;10.13;6.80;;;;;;;10.09;93.39;100635.02;2064612;84;21050;-76
2022/01/01 09:23:53;;;;;;;12.07;7.10;;;;;;;10.09;93.55;100637.67;2064634;84;20982;-77
2022/01/01 09:26:57;;;;;;;13.20;8.08;;;;;;;10.06;93.35;100628.20;2065244;84;21094;-75
2022/01/01 09:29:59;;;;;;;13.13;8.55;;;;;;;10.06;93.35;100628.20;2068141;84;21002;-74
2022/01/01 09:33:03;;;;;;;16.55;8.23;;;;;;;10.06;93.55;100620.73;2064050;84;21085;-73
2022/01/01 09:36:06;;;;;;;11.90;7.25;;;;;;;10.07;93.55;100636.48;2065879;84;21050;-75
2022/01/01 09:39:11;;;;;;;14.85;8.10;;;;;;;10.09;93.50;100644.30;2065320;84;21083;-76
2022/01/01 09:42:13;;;;;;;11.83;7.72;;;;;;;10.12;93.52;100650.63;2064041;84;20988;-77
2022/01/01 09:45:19;;;;;;;13.05;8.00;;;;;;;10.02;93.54;100620.68;2045315;84;21042;-76
2022/01/01 09:48:23;;;;;;;14.58;8.55;;;;;;;10.16;93.50;100647.99;2051872;84;21071;-77
2022/01/01 09:51:28;;;;;;;13.20;7.92;;;;;;;10.04;93.34;100626.18;2070655;84;20988;-77
2022/01/01 09:54:34;;;;;;;13.43;8.40;;;;;;;10.04;93.34;100626.18;2053220;84;21060;-76
2022/01/01 09:57:39;;;;;;;16.77;12.15;;;;;;;10.15;93.34;100650.81;2070285;84;21975;-75
2022/01/01 10:00:43;;;;;;;14.23;8.05;;;;;;;10.15;93.26;100654.80;2069795;84;21080;-78
2022/01/01 10:03:51;;;;;;;15.00;7.72;;;;;;;10.14;93.29;100663.75;2071846;84;21048;-77
2022/01/01 10:07:10;;;;;;;14.58;7.95;;;;;;;10.14;93.37;100668.55;2073414;84;21541;-76
2022/01/01 10:10:23;;;;;;;15.35;7.42;;;;;;;10.15;93.37;100664.91;2068011;84;21108;-76
2022/01/01 10:13:37;;;;;;;10.85;7.45;;;;;;;10.13;93.68;100668.69;2071569;84;21779;-81
2022/01/01 10:16:48;;;;;;;11.53;6.83;;;;;;;10.13;93.68;100668.69;2094666;83;21026;-80
2022/01/01 10:19:50;;;;;;;10.98;5.67;;;;;;;10.12;93.54;100672.33;2096360;83;21073;-79
2022/01/01 10:22:56;;;;;;;9.33;5.58;;;;;;;10.09;93.62;100677.44;2096884;83;20986;-77
2022/01/01 10:29:55;;;;;;;9.95;5.53;;;;;;;10.01;93.72;100680.83;2101746;83;21127;-78
2022/01/01 10:33:09;;;;;;;6.95;4.40;;;;;;;10.00;93.66;100680.50;2099724;83;21036;-83
2022/01/01 10:36:15;;;;;;;6.37;3.90;;;;;;;10.00;93.48;100679.67;2097058;83;21005;-77
2022/01/01 10:39:22;;;;;;;5.08;3.67;;;;;;;10.01;93.37;100688.78;2078265;83;21064;-76
2022/01/01 10:42:29;;;;;;;5.53;3.60;;;;;;;10.03;93.20;100684.67;2092729;83;21017;-78
2022/01/01 10:45:47;;;;;;;5.50;3.02;;;;;;;10.05;93.20;100691.96;2092275;83;21095;-73
2022/01/01 10:48:57;;;;;;;5.42;3.10;;;;;;;10.09;93.14;100691.53;2094440;83;21027;-76
2022/01/01 10:52:17;;;;;;;6.42;3.50;;;;;;;10.14;93.15;100689.77;2090611;83;21041;-88
2022/01/01 10:55:21;;;;;;;4.78;3.62;;;;;;;10.20;93.24;100689.66;2095358;83;21034;-76
2022/01/01 10:58:34;;;;;;;6.30;4.25;;;;;;;10.23;93.15;100692.83;2078012;83;21032;-75
2022/01/01 11:01:34;;;;;;;9.68;5.08;;;;;;;10.27;93.07;100691.56;2090637;83;21017;-78
2022/01/01 11:04:39;;;;;;;7.62;4.72;;;;;;;10.30;93.09;100689.97;2099131;83;20991;-76
2022/01/01 11:07:52;;;;;;;8.40;4.62;;;;;;;10.34;93.13;100693.14;2070639;83;21842;-75
2022/01/01 11:10:56;;;;;;;8.28;4.28;;;;;;;10.41;93.25;100686.23;2096008;83;21052;-75
2022/01/01 11:14:00;;;;;;;7.28;4.53;;;;;;;10.57;93.09;100686.05;2092482;83;21779;-76
2022/01/01 11:17:05;;;;;;;11.12;6.87;;;;;;;10.57;93.09;100686.05;2115013;82;21584;-77
2022/01/01 11:20:10;;;;;;;11.10;6.05;;;;;;;10.65;93.02;100684.30;2120011;81;21009;-77
2022/01/01 11:23:16;;;;;;;6.78;5.00;;;;;;;10.72;92.90;100681.85;2131905;81;21010;-77
2022/01/01 11:26:20;;;;;;;11.65;5.92;;;;;;;10.74;92.73;100682.03;2127933;81;21016;-82
2022/01/01 11:29:23;;;;;;;8.25;4.67;;;;;;;10.76;92.46;100683.22;2125797;82;21530;-79
2022/01/01 11:32:30;;;;;;;10.08;5.47;;;;;;;10.75;92.34;100695.64;2130447;82;21058;-79
2022/01/01 11:35:36;;;;;;;11.15;6.25;;;;;;;10.74;92.37;100694.48;2122887;82;21005;-77
2022/01/01 11:38:39;;;;;;;14.23;6.15;;;;;;;10.73;92.16;100691.50;2116338;82;21569;-81
2022/01/01 11:41:44;;;;;;;9.05;5.72;;;;;;;10.74;91.97;100689.17;2123675;81;21030;-79
2022/01/01 11:44:55;;;;;;;11.57;5.60;;;;;;;10.76;91.98;100691.19;2118790;82;21768;-76
2022/01/01 11:48:21;;;;;;;11.20;6.30;;;;;;;10.76;91.94;100693.84;2109079;82;21486;-77
2022/01/01 11:51:46;;;;;;;8.90;6.35;;;;;;;10.76;91.79;100701.80;2122463;82;21493;-76
2022/01/01 11:55:02;;;;;;;11.55;6.50;;;;;;;10.71;91.47;100702.25;2126907;82;20971;-77
2022/01/01 11:58:09;;;;;;;9.80;6.30;;;;;;;10.71;91.47;100702.25;2123674;82;21030;-78
2022/01/01 12:01:14;;;;;;;13.93;6.47;;;;;;;10.70;91.57;100712.55;2121482;82;21577;-77
2022/01/01 12:04:38;;;;;;;14.05;6.87;;;;;;;10.66;91.45;100704.53;2102269;82;21021;-77
2022/01/01 12:07:51;;;;;;;14.45;7.83;;;;;;;10.42;91.39;100668.02;2122027;82;20994;-83
2022/01/01 12:10:55;;;;;;;13.70;7.95;;;;;;;10.58;91.42;100708.94;2127932;82;21017;-77
2022/01/01 12:13:59;;;;;;;16.15;7.30;;;;;;;10.54;91.42;100707.91;2121865;81;21033;-77
2022/01/01 12:17:06;;;;;;;14.75;7.72;;;;;;;10.41;91.45;100689.38;2108339;82;21079;-77
2022/01/01 12:20:17;;;;;;;13.08;6.78;;;;;;;10.41;91.50;100692.03;2109886;82;21033;-77
2022/01/01 12:23:22;;;;;;;15.58;8.13;;;;;;;10.44;91.48;100689.07;2107024;82;21088;-75
2022/01/01 12:26:33;;;;;;;15.40;8.00;;;;;;;10.57;91.54;100709.93;2106266;82;21052;-80
2022/01/01 12:29:39;;;;;;;14.05;7.78;;;;;;;10.56;91.47;100703.80;2104012;82;20982;-78
2022/01/01 12:32:45;;;;;;;20.82;9.68;;;;;;;10.55;91.46;100707.41;2111392;82;21013;-77
2022/01/01 12:35:58;;;;;;;17.98;9.63;;;;;;;10.56;91.86;100715.73;2102104;82;21025;-77
2022/01/01 12:39:04;;;;;;;14.70;8.20;;;;;;;10.56;91.86;100715.73;2109886;82;20958;-77
2022/01/01 12:42:28;;;;;;;17.40;9.63;;;;;;;10.49;91.42;100695.59;2107625;82;21759;-77
2022/01/01 12:45:33;;;;;;;14.78;9.03;;;;;;;10.61;91.35;100717.41;2108088;83;21050;-82
2022/01/01 12:48:36;;;;;;;17.75;8.65;;;;;;;10.57;91.32;100713.41;2106041;82;21060;-80
2022/01/01 12:51:41;;;;;;;17.62;8.45;;;;;;;10.64;91.18;100734.86;2107270;82;21861;-78
2022/01/01 12:54:49;;;;;;;16.87;8.28;;;;;;;10.63;91.18;100730.55;2105368;82;21846;-91
2022/01/01 12:58:09;;;;;;;16.15;8.55;;;;;;;10.66;91.10;100733.72;2108717;82;21045;-78
2022/01/01 13:01:15;;;;;;;16.62;8.25;;;;;;;10.62;90.99;100733.70;2104438;82;21544;-81
2022/01/01 13:04:22;;;;;;;17.25;9.13;;;;;;;10.61;90.88;100738.64;2107682;82;21001;-79
2022/01/01 13:07:26;;;;;;;18.75;8.93;;;;;;;10.60;90.78;100733.50;2108920;82;21958;-80
2022/01/01 13:10:30;;;;;;;12.33;7.00;;;;;;;10.64;90.83;100738.84;2110513;82;21283;-79
2022/01/01 13:13:34;;;;;;;12.03;7.65;;;;;;;10.64;90.83;100738.84;2108158;82;21302;-79
2022/01/01 13:16:40;;;;;;;15.83;7.80;;;;;;;10.66;90.48;100740.86;2093857;82;21084;-84
2022/01/01 13:19:45;;;;;;;15.43;8.20;;;;;;;10.68;90.03;100739.72;2088162;83;21002;-78
2022/01/01 13:22:47;;;;;;;14.68;7.03;;;;;;;10.69;90.27;100738.72;2079655;83;21005;-77
2022/01/01 13:25:51;;;;;;;15.10;7.08;;;;;;;10.70;89.90;100737.75;2077941;83;21058;-82
2022/01/01 13:29:03;;;;;;;14.18;6.92;;;;;;;10.71;89.96;100753.19;2086652;83;21057;-81
2022/01/01 13:32:05;;;;;;;11.93;6.70;;;;;;;10.71;89.96;100753.19;2078745;83;21014;-81
2022/01/01 13:35:13;;;;;;;13.13;6.35;;;;;;;10.62;89.77;100737.68;2057104;83;21074;-82
2022/01/01 13:38:16;;;;;;;14.03;6.67;;;;;;;10.71;89.58;100751.36;2073983;83;21418;-81
2022/01/01 13:41:22;;;;;;;14.18;6.17;;;;;;;10.57;89.47;100738.63;2082836;83;21387;-81
2022/01/01 13:44:37;;;;;;;13.62;6.28;;;;;;;10.65;89.33;100754.63;2072547;83;21097;-81
2022/01/01 13:47:39;;;;;;;12.28;6.37;;;;;;;10.63;89.14;100760.56;2080136;83;21052;-78
2022/01/01 13:50:49;;;;;;;17.30;7.00;;;;;;;10.60;89.35;100764.02;2076135;83;21053;-77
2022/01/01 13:53:49;;;;;;;13.53;7.08;;;;;;;10.53;89.29;100775.72;2081210;83;20987;-77
2022/01/01 13:56:59;;;;;;;12.40;6.42;;;;;;;10.50;89.45;100778.20;2082475;83;21089;-71
2022/01/01 14:00:02;;;;;;;15.98;6.50;;;;;;;10.45;89.55;100780.47;2068600;83;21570;-81
2022/01/01 14:03:06;;;;;;;14.40;6.55;;;;;;;10.28;89.46;100774.15;2079624;83;21091;-80
2022/01/01 14:06:10;;;;;;;10.48;6.12;;;;;;;10.28;89.46;100774.15;2081620;83;21055;-84
2022/01/01 14:09:15;;;;;;;13.20;6.35;;;;;;;10.36;89.53;100802.59;2084685;83;20998;-79
2022/01/01 14:12:17;;;;;;;11.08;6.00;;;;;;;10.32;89.67;100805.19;2081480;83;22241;-79
2022/01/01 14:15:25;;;;;;;11.88;6.40;;;;;;;10.25;89.84;100814.70;2081708;83;21007;-78
2022/01/01 14:18:31;;;;;;;10.95;6.30;;;;;;;10.14;90.26;100836.94;2120314;82;21492;-80
2022/01/01 14:21:38;;;;;;;9.70;5.47;;;;;;;10.14;90.26;100836.94;2121574;82;21600;-78
2022/01/01 14:24:55;;;;;;;8.63;5.17;;;;;;;10.09;90.19;100833.88;2117294;82;21014;-81